Terminal Aerodrome Forecast
Issued by NWS

Home | Current Version | Previous Version | Text Only | Print | Product List | Glossary On
Versions: 1 2 3 4 5 6 7 8 9 10 11 12 13 14 15 16 17
000
FTUS42 KTAE 270500
TAFVLD
TAF
KVLD 270520Z 2706/2806 VRB02KT P6SM SKC
     FM271400 32008G18KT P6SM SKC
     FM272300 35003KT P6SM SKC=

USA.gov is the U.S. government's official web portal to all federal, state and local government web resources and services.